Time;durP1;ratioP1;P1;durP2;ratioP2;P2;SDS_P1;SDS_P2;PMS_P1;PMS_P2;Temp;Humidity;BMP_temperature;BMP_pressure;BME280_temperature;BME280_humidity;BME280_pressure;Samples;Min_cycle;Max_cycle;Signal;HPM_P1;HPM_P2
2022/09/05 00:01:57;;;;;;;8.80;4.70;;;;;;;10.12;71.57;99743.35;104938;1274;61724;-24
2022/09/05 00:04:59;;;;;;;8.00;4.80;;;;;;;9.76;72.66;99745.23;104757;1274;61039;-23
2022/09/05 00:07:38;;;;;;;8.60;5.00;;;;;;;9.38;72.92;99743.68;104700;1272;75804;-23
2022/09/05 00:10:33;;;;;;;10.90;4.90;;;;;;;9.07;74.37;99739.09;104930;1271;75780;-23
2022/09/05 00:13:26;;;;;;;7.10;3.70;;;;;;;8.91;75.42;99738.92;104615;1272;74265;-23
2022/09/05 00:15:58;;;;;;;8.30;4.40;;;;;;;9.58;74.49;99733.35;104587;1271;61033;-24
2022/09/05 00:18:41;;;;;;;10.50;4.80;;;;;;;10.24;73.15;99735.73;104667;1272;61145;-23
2022/09/05 00:22:05;;;;;;;7.60;4.50;;;;;;;10.32;72.47;99733.30;104631;1274;75453;-23
2022/09/05 00:25:17;;;;;;;6.40;4.10;;;;;;;10.11;72.14;99737.45;104759;1274;76112;-23
2022/09/05 00:28:21;;;;;;;7.90;5.30;;;;;;;9.86;72.46;99737.23;104643;1274;73374;-23
2022/09/05 00:31:21;;;;;;;10.60;5.50;;;;;;;9.62;73.73;99736.27;104655;1274;62072;-23
2022/09/05 00:34:17;;;;;;;8.30;5.00;;;;;;;9.34;74.87;99740.52;104962;1274;62005;-23
2022/09/05 00:36:46;;;;;;;8.70;4.10;;;;;;;9.19;74.81;99742.54;104757;1271;75436;-23
2022/09/05 00:39:22;;;;;;;6.80;3.80;;;;;;;9.67;74.64;99736.63;104705;1275;75126;-23
2022/09/05 00:41:50;;;;;;;12.00;5.10;;;;;;;10.25;73.12;99733.10;104760;1275;74298;-23
2022/09/05 00:44:18;;;;;;;9.60;5.40;;;;;;;10.30;72.51;99729.06;104758;1277;61195;-23
2022/09/05 00:47:08;;;;;;;9.10;4.20;;;;;;;10.15;72.85;99728.86;104804;1274;61107;-23
2022/09/05 00:49:44;;;;;;;10.80;5.70;;;;;;;9.88;73.40;99728.45;104719;1272;75316;-23
2022/09/05 00:52:21;;;;;;;8.70;4.40;;;;;;;9.64;74.01;99725.20;104771;1272;76011;-23
2022/09/05 00:55:06;;;;;;;10.90;4.90;;;;;;;9.45;74.26;99724.02;104815;1274;74475;-23
2022/09/05 00:57:46;;;;;;;6.90;4.20;;;;;;;9.26;73.92;99721.45;104978;1274;62153;-23
2022/09/05 01:00:15;;;;;;;6.30;3.10;;;;;;;9.16;73.97;99726.58;104898;1272;62240;-23
2022/09/05 01:02:44;;;;;;;5.50;3.20;;;;;;;9.77;73.92;99723.95;104872;1274;74204;-23
2022/09/05 01:05:53;;;;;;;6.20;4.40;;;;;;;10.43;72.57;99720.60;105110;1271;75781;-23
2022/09/05 01:08:42;;;;;;;7.20;4.20;;;;;;;10.50;71.73;99718.54;104810;1274;73441;-23
2022/09/05 01:11:34;;;;;;;7.30;4.60;;;;;;;10.33;71.79;99715.52;105102;1273;61127;-24
2022/09/05 01:14:27;;;;;;;9.00;4.40;;;;;;;10.12;72.61;99715.90;104768;1274;61131;-23
2022/09/05 01:17:03;;;;;;;7.90;5.00;;;;;;;9.89;73.77;99714.68;104726;1275;75701;-23
2022/09/05 01:19:49;;;;;;;7.50;4.70;;;;;;;9.64;74.45;99711.71;104644;1274;75832;-23
2022/09/05 01:22:44;;;;;;;6.80;3.30;;;;;;;9.47;75.37;99713.66;104818;1273;73359;-23
2022/09/05 01:25:18;;;;;;;8.50;3.40;;;;;;;10.15;74.72;99705.10;104971;1274;61067;-23
2022/09/05 01:28:03;;;;;;;9.00;5.10;;;;;;;10.65;73.13;99706.70;104864;1274;61095;-23
2022/09/05 01:30:49;;;;;;;;;;;;;;;10.65;72.48;99708.61;104626;1274;75540;-25
2022/09/05 01:33:42;;;;;;;5.60;3.60;;;;;;;10.46;72.77;99709.24;105055;1274;76048;-23
2022/09/05 01:36:39;;;;;;;10.70;4.90;;;;;;;10.15;73.08;99706.63;104553;1275;74525;-23
2022/09/05 01:39:18;;;;;;;9.40;4.80;;;;;;;9.91;73.63;99708.33;104589;1274;61141;-23
2022/09/05 01:42:42;;;;;;;8.00;4.70;;;;;;;9.72;74.44;99706.63;105008;1274;61881;-23
2022/09/05 01:45:35;;;;;;;7.60;3.50;;;;;;;9.66;75.14;99706.34;105042;1274;75902;-23
2022/09/05 01:48:20;;;;;;;8.70;3.80;;;;;;;10.50;74.18;99703.90;105125;1274;74972;-23
2022/09/05 01:51:08;;;;;;;7.40;4.10;;;;;;;11.00;72.67;99701.41;104757;1274;74436;-23
2022/09/05 01:54:07;;;;;;;7.70;4.20;;;;;;;10.95;72.87;99705.44;105006;1274;61173;-23
2022/09/05 01:56:53;;;;;;;5.70;3.80;;;;;;;10.74;72.76;99702.05;104888;1274;62268;-23
2022/09/05 01:59:46;;;;;;;7.60;4.90;;;;;;;10.48;73.85;99704.79;104992;1271;75634;-23
2022/09/05 02:02:25;;;;;;;6.70;4.40;;;;;;;10.10;75.44;99702.66;102811;1273;3055652;-23
2022/09/05 02:05:31;;;;;;;6.90;4.10;;;;;;;9.82;75.43;99705.12;105110;1274;72246;-23
2022/09/05 02:08:47;;;;;;;7.50;3.40;;;;;;;9.73;75.56;99701.86;104707;1274;62532;-23
2022/09/05 02:11:15;;;;;;;7.00;3.80;;;;;;;10.65;72.75;99699.23;104597;1274;62288;-23
2022/09/05 02:14:07;;;;;;;8.30;4.40;;;;;;;11.08;70.64;99699.42;104719;1273;75426;-23
2022/09/05 02:16:43;;;;;;;7.80;4.20;;;;;;;10.99;71.70;99700.61;104585;1274;76134;-23
2022/09/05 02:19:15;;;;;;;9.60;4.50;;;;;;;10.79;71.79;99693.70;104628;1275;74610;-23
2022/09/05 02:22:06;;;;;;;8.10;4.30;;;;;;;10.61;71.72;99693.63;104455;1274;61136;-23
2022/09/05 02:24:40;;;;;;;8.20;5.00;;;;;;;10.41;72.42;99688.79;104645;1274;61082;-23
2022/09/05 02:27:19;;;;;;;8.10;4.40;;;;;;;10.26;72.51;99685.27;104504;1275;76294;-24
2022/09/05 02:30:17;;;;;;;7.30;4.60;;;;;;;10.12;72.90;99689.20;104668;1274;76002;-24
2022/09/05 02:33:21;;;;;;;7.20;4.00;;;;;;;10.00;75.00;99694.69;104452;1274;74506;-23
2022/09/05 02:36:14;;;;;;;;;;;;;;;10.60;73.47;99692.30;104678;1274;61153;-23
2022/09/05 02:38:59;;;;;;;6.60;3.80;;;;;;;11.01;71.62;99689.56;104647;1274;61111;-23
2022/09/05 02:41:54;;;;;;;7.20;4.20;;;;;;;10.82;71.61;99688.85;104628;1274;75388;-24
2022/09/05 02:45:04;;;;;;;7.30;4.60;;;;;;;10.64;72.36;99691.14;104529;1274;76062;-23
2022/09/05 02:48:02;;;;;;;8.00;4.80;;;;;;;10.42;72.93;99688.54;104661;1274;74423;-23
2022/09/05 02:50:56;;;;;;;7.70;4.30;;;;;;;10.24;72.99;99686.25;104655;1274;61161;-23
2022/09/05 02:53:53;;;;;;;4.90;3.50;;;;;;;10.15;73.00;99680.66;104678;1273;62032;-23
2022/09/05 02:57:17;;;;;;;5.60;3.90;;;;;;;10.14;73.40;99678.98;104400;1274;75957;-23
2022/09/05 03:00:10;;;;;;;7.30;4.00;;;;;;;11.11;71.70;99685.49;104810;1274;76180;-23
2022/09/05 03:02:43;;;;;;;6.50;4.20;;;;;;;11.50;70.21;99678.83;104591;1274;74585;-24
2022/09/05 03:05:20;;;;;;;7.80;3.80;;;;;;;11.50;69.78;99677.94;104692;1274;61177;-23
2022/09/05 03:08:12;;;;;;;8.70;4.00;;;;;;;11.34;69.89;99677.93;104623;1274;61121;-23
2022/09/05 03:11:10;;;;;;;6.30;4.80;;;;;;;11.11;70.41;99677.33;104638;1275;75891;-23
2022/09/05 03:14:10;;;;;;;6.80;4.20;;;;;;;10.87;71.07;99678.44;104755;1274;75077;-23
2022/09/05 03:16:43;;;;;;;9.50;4.40;;;;;;;10.66;71.50;99678.70;104138;1275;74166;-23
2022/09/05 03:19:20;;;;;;;10.70;5.40;;;;;;;10.49;71.84;99682.48;104664;1274;61910;-23
2022/09/05 03:21:59;;;;;;;4.90;3.30;;;;;;;10.39;72.64;99679.88;104766;1275;61106;-23
2022/09/05 03:24:38;;;;;;;6.60;3.30;;;;;;;10.95;72.03;99681.66;104790;1274;75539;-23
2022/09/05 03:27:20;;;;;;;6.70;3.50;;;;;;;11.53;70.20;99678.61;104941;1274;76136;-23
2022/09/05 03:30:10;;;;;;;8.00;4.10;;;;;;;11.58;69.57;99676.98;104871;1274;74383;-23
2022/09/05 03:32:56;;;;;;;5.80;3.90;;;;;;;11.39;69.28;99681.91;104672;1274;61295;-23
2022/09/05 03:35:54;;;;;;;7.20;4.70;;;;;;;11.16;69.97;99684.95;104801;1274;61160;-23
2022/09/05 03:38:42;;;;;;;7.80;4.30;;;;;;;10.93;70.61;99688.08;104979;1274;75410;-23
2022/09/05 03:41:43;;;;;;;6.40;4.40;;;;;;;10.72;71.50;99688.80;105106;1274;75820;-23
2022/09/05 03:44:18;;;;;;;6.10;4.20;;;;;;;10.54;70.97;99684.19;105032;1274;74599;-24
2022/09/05 03:47:10;;;;;;;6.20;3.30;;;;;;;10.48;71.13;99684.98;104643;1276;63468;-23
2022/09/05 03:50:01;;;;;;;9.10;4.50;;;;;;;11.12;70.01;99687.86;104817;1274;61138;-23
2022/09/05 03:53:10;;;;;;;9.00;4.90;;;;;;;11.62;68.30;99687.64;104761;1271;75500;-23
2022/09/05 03:56:40;;;;;;;9.70;4.60;;;;;;;11.57;67.87;99684.37;104769;1274;76024;-24
2022/09/05 03:59:36;;;;;;;6.10;4.20;;;;;;;11.35;68.04;99687.08;104941;1271;74510;-23
2022/09/05 04:02:06;;;;;;;10.70;5.00;;;;;;;11.19;68.15;99682.65;104612;1274;62107;-23
2022/09/05 04:05:07;;;;;;;7.30;4.50;;;;;;;11.01;68.85;99685.03;104801;1274;61862;-23
2022/09/05 04:08:14;;;;;;;10.60;5.20;;;;;;;10.81;69.99;99683.69;104617;1274;75557;-23
2022/09/05 04:11:10;;;;;;;6.70;4.50;;;;;;;10.66;70.69;99678.47;104626;1274;76009;-23
2022/09/05 04:13:51;;;;;;;6.50;3.80;;;;;;;10.61;70.82;99680.13;104633;1274;74490;-23
2022/09/05 04:16:23;;;;;;;9.00;4.80;;;;;;;11.23;70.29;99680.45;104640;1274;61115;-23
2022/09/05 04:18:53;;;;;;;7.20;5.20;;;;;;;11.82;68.22;99677.27;104651;1274;61079;-23
2022/09/05 04:21:27;;;;;;;10.80;4.50;;;;;;;11.92;67.77;99672.88;104646;1274;75354;-23
2022/09/05 04:24:05;;;;;;;;;;;;;;;11.81;67.72;99675.42;104672;1274;75952;-24
2022/09/05 04:27:06;;;;;;;11.60;4.50;;;;;;;11.60;67.77;99672.36;104596;1275;74443;-23
2022/09/05 04:29:58;;;;;;;7.40;4.40;;;;;;;11.38;68.38;99675.57;104742;1274;61169;-23
2022/09/05 04:32:28;;;;;;;9.60;5.70;;;;;;;11.21;68.80;99679.44;104656;1274;62585;-23
2022/09/05 04:35:18;;;;;;;8.90;6.10;;;;;;;11.04;70.43;99681.84;104598;1271;77682;-23
2022/09/05 04:38:15;;;;;;;12.10;7.10;;;;;;;10.91;70.93;99683.03;104653;1274;75902;-23
2022/09/05 04:40:59;;;;;;;8.00;4.60;;;;;;;10.86;71.26;99680.55;104672;1274;74613;-23
2022/09/05 04:43:31;;;;;;;11.30;5.70;;;;;;;11.64;69.50;99681.60;104713;1271;61257;-23
2022/09/05 04:46:21;;;;;;;8.50;5.20;;;;;;;12.21;67.01;99684.77;104664;1274;61198;-23
2022/09/05 04:49:05;;;;;;;10.70;5.20;;;;;;;12.31;66.46;99687.64;104816;1274;74104;-24
2022/09/05 04:51:55;;;;;;;9.00;5.50;;;;;;;12.13;66.79;99689.93;104764;1274;75845;-24
2022/09/05 04:54:31;;;;;;;8.90;5.80;;;;;;;11.94;68.07;99695.15;104622;1274;74252;-23
2022/09/05 04:57:22;;;;;;;9.10;5.80;;;;;;;11.77;68.46;99695.23;104626;1274;62206;-23
2022/09/05 05:00:05;;;;;;;10.40;6.10;;;;;;;11.59;69.54;99694.64;104589;1272;61181;-24
2022/09/05 05:02:57;;;;;;;10.40;6.10;;;;;;;11.41;69.48;99698.27;104841;1274;75451;-24
2022/09/05 05:05:47;;;;;;;9.60;5.70;;;;;;;11.29;70.11;99703.88;104692;1272;75757;-24
2022/09/05 05:08:45;;;;;;;9.30;4.50;;;;;;;11.28;70.47;99704.80;104708;1271;74454;-24
2022/09/05 05:11:21;;;;;;;10.00;4.60;;;;;;;12.11;69.00;99702.92;104634;1274;61167;-24
2022/09/05 05:14:41;;;;;;;8.10;5.10;;;;;;;13.08;66.41;99696.71;104629;1271;61042;-24
2022/09/05 05:17:37;;;;;;;11.20;5.90;;;;;;;13.56;64.91;99705.70;104740;1271;75347;-23
2022/09/05 05:20:58;;;;;;;9.80;5.90;;;;;;;13.81;65.01;99712.73;104680;1274;75978;-24
2022/09/05 05:23:44;;;;;;;10.40;6.10;;;;;;;14.06;64.88;99713.39;105080;1274;74214;-24
2022/09/05 05:26:21;;;;;;;11.80;6.60;;;;;;;13.85;62.48;99714.64;104953;1274;61163;-24
2022/09/05 05:29:08;;;;;;;11.30;6.90;;;;;;;13.88;62.96;99720.34;104605;1274;61077;-23
2022/09/05 05:31:56;;;;;;;8.30;5.60;;;;;;;13.85;62.35;99718.64;104753;1274;75507;-24
2022/09/05 05:34:31;;;;;;;11.70;7.50;;;;;;;13.75;62.74;99729.95;104779;1274;76175;-24
2022/09/05 05:37:02;;;;;;;10.70;6.60;;;;;;;13.53;62.67;99725.34;104597;1274;73043;-24
2022/09/05 05:39:29;;;;;;;10.90;6.70;;;;;;;13.38;63.62;99737.48;104670;1274;61934;-24
2022/09/05 05:41:57;;;;;;;9.90;7.20;;;;;;;13.20;64.29;99734.23;104633;1274;61024;-24
2022/09/05 05:44:29;;;;;;;12.50;7.80;;;;;;;13.09;65.50;99742.13;104823;1272;75402;-24
2022/09/05 05:47:01;;;;;;;16.30;7.80;;;;;;;12.98;65.56;99738.80;104775;1274;75774;-24
2022/09/05 05:49:31;;;;;;;20.80;7.80;;;;;;;12.95;66.94;99744.60;104631;1274;74882;-24
2022/09/05 05:52:03;;;;;;;7.80;5.60;;;;;;;12.97;67.22;99743.09;104746;1272;63406;-24
2022/09/05 05:54:54;;;;;;;10.50;6.40;;;;;;;13.48;65.79;99744.77;104596;1274;61090;-24
2022/09/05 05:58:09;;;;;;;9.60;6.60;;;;;;;14.15;64.29;99742.31;104572;1273;74447;-24
2022/09/05 06:00:42;;;;;;;13.90;7.20;;;;;;;14.19;63.59;99743.35;104833;1274;76018;-24
2022/09/05 06:03:59;;;;;;;9.90;6.90;;;;;;;13.98;64.48;99748.14;104789;1274;74162;-24
2022/09/05 06:07:08;;;;;;;10.60;6.40;;;;;;;13.83;64.82;99750.20;104856;1273;62461;-24
2022/09/05 06:09:58;;;;;;;11.80;7.00;;;;;;;13.68;65.52;99750.10;104808;1274;62241;-24
2022/09/05 06:13:10;;;;;;;12.90;6.00;;;;;;;13.47;66.17;99757.02;104876;1273;75316;-24
2022/09/05 06:16:15;;;;;;;12.00;6.80;;;;;;;13.31;66.39;99764.92;105139;1274;76191;-24
2022/09/05 06:19:09;;;;;;;13.00;7.10;;;;;;;13.13;67.53;99772.64;105009;1272;74336;-24
2022/09/05 06:22:04;;;;;;;10.80;6.50;;;;;;;13.07;68.84;99773.64;104783;1272;60981;-23
2022/09/05 06:25:19;;;;;;;9.60;5.90;;;;;;;12.98;68.94;99773.70;104754;1271;61654;-24
2022/09/05 06:28:14;;;;;;;11.30;6.00;;;;;;;13.31;67.62;99777.83;104856;1274;75295;-24
2022/09/05 06:30:57;;;;;;;10.00;6.60;;;;;;;13.50;67.54;99782.41;104965;1272;75754;-24
2022/09/05 06:33:47;;;;;;;9.50;6.30;;;;;;;13.38;68.02;99790.86;104897;1271;74733;-24
2022/09/05 06:36:31;;;;;;;11.20;6.10;;;;;;;13.10;68.96;99794.48;104663;1271;61151;-24
2022/09/05 06:39:19;;;;;;;9.60;6.70;;;;;;;12.96;69.94;99801.32;104977;1274;61036;-24
2022/09/05 06:41:46;;;;;;;11.50;7.20;;;;;;;12.86;70.59;99804.73;104818;1274;75358;-24
2022/09/05 06:44:29;;;;;;;9.50;6.30;;;;;;;12.67;71.17;99801.17;104828;1274;75808;-24
2022/09/05 06:46:57;;;;;;;8.00;5.30;;;;;;;12.86;71.68;99804.02;104623;1271;73617;-24
2022/09/05 06:50:04;;;;;;;10.10;5.70;;;;;;;13.54;68.84;99800.98;104907;1274;62313;-24
2022/09/05 06:53:16;;;;;;;12.70;6.80;;;;;;;13.71;68.15;99804.24;105006;1271;61858;-24
2022/09/05 06:56:15;;;;;;;12.20;6.80;;;;;;;13.61;69.02;99806.70;104682;1274;75336;-24
2022/09/05 06:58:59;;;;;;;14.50;6.40;;;;;;;13.39;69.65;99808.98;104802;1273;75980;-24
2022/09/05 07:01:29;;;;;;;12.50;6.50;;;;;;;13.28;70.00;99807.86;104775;1273;74359;-24
2022/09/05 07:04:28;;;;;;;9.00;6.60;;;;;;;13.14;70.38;99805.03;104589;1272;61163;-26
2022/09/05 07:07:18;;;;;;;10.60;6.10;;;;;;;12.92;71.35;99806.20;104643;1272;62008;-23
2022/09/05 07:09:53;;;;;;;8.10;5.40;;;;;;;12.94;71.70;99813.67;104714;1272;75623;-24
2022/09/05 07:12:28;;;;;;;12.70;5.70;;;;;;;13.49;70.39;99816.20;104591;1274;76095;-23
2022/09/05 07:15:25;;;;;;;9.70;5.60;;;;;;;13.87;68.92;99818.84;104638;1274;74385;-23
2022/09/05 07:18:00;;;;;;;10.90;5.50;;;;;;;13.92;69.29;99818.48;104764;1271;61062;-24
2022/09/05 07:20:49;;;;;;;15.40;6.60;;;;;;;13.77;69.70;99817.75;104611;1274;62030;-22
2022/09/05 07:23:48;;;;;;;10.40;6.50;;;;;;;13.63;69.96;99809.34;104614;1271;75214;-23
2022/09/05 07:26:36;;;;;;;9.90;6.00;;;;;;;13.49;70.51;99809.55;104604;1274;74994;-23
2022/09/05 07:29:31;;;;;;;10.30;6.80;;;;;;;13.47;70.42;99810.06;104581;1274;74494;-25
2022/09/05 07:32:00;;;;;;;11.30;5.10;;;;;;;13.52;70.06;99812.64;104612;1274;62273;-25
2022/09/05 07:34:28;;;;;;;6.80;4.60;;;;;;;14.12;68.29;99812.05;104628;1274;61052;-25
2022/09/05 07:37:01;;;;;;;8.80;5.20;;;;;;;14.70;65.62;99808.39;104661;1274;75560;-25
2022/09/05 07:39:58;;;;;;;9.10;5.30;;;;;;;14.80;64.85;99807.00;104598;1274;76376;-23
2022/09/05 07:43:06;;;;;;;8.10;4.90;;;;;;;14.88;64.32;99809.17;104656;1271;74517;-23
2022/09/05 07:45:41;;;;;;;8.20;5.00;;;;;;;14.96;63.69;99804.55;104681;1274;61908;-23
2022/09/05 07:48:23;;;;;;;5.60;4.30;;;;;;;15.06;62.71;99807.96;104533;1273;61061;-23
2022/09/05 07:51:04;;;;;;;8.40;4.30;;;;;;;14.97;61.87;99807.61;104478;1274;75418;-23
2022/09/05 07:53:53;;;;;;;8.60;4.50;;;;;;;15.14;61.84;99806.02;104588;1274;75935;-23
2022/09/05 07:56:47;;;;;;;7.70;4.30;;;;;;;15.20;61.11;99806.55;104595;1274;73538;-23
2022/09/05 07:59:39;;;;;;;9.90;3.70;;;;;;;15.18;60.94;99803.39;104558;1274;61170;-23
2022/09/05 08:02:08;;;;;;;10.80;4.90;;;;;;;15.21;59.93;99802.73;104372;1275;61100;-24
2022/09/05 08:04:38;;;;;;;7.40;4.70;;;;;;;15.18;60.71;99803.50;104542;1273;75567;-26
2022/09/05 08:07:18;;;;;;;6.70;4.40;;;;;;;14.94;60.06;99802.34;104431;1274;75993;-24
2022/09/05 08:10:30;;;;;;;8.00;3.90;;;;;;;15.10;59.94;99798.67;104580;1274;74229;-24
2022/09/05 08:13:19;;;;;;;7.80;4.00;;;;;;;15.76;59.02;99798.04;104673;1274;62159;-24
2022/09/05 08:15:55;;;;;;;8.00;3.20;;;;;;;15.82;56.20;99795.41;104644;1274;61202;-23
2022/09/05 08:18:48;;;;;;;7.80;2.80;;;;;;;15.66;52.42;99793.66;104599;1274;74960;-23
2022/09/05 08:21:22;;;;;;;12.30;6.30;;;;;;;15.83;51.07;99797.36;104562;1274;75076;-24
2022/09/05 08:24:31;;;;;;;7.70;3.30;;;;;;;15.73;50.29;99793.42;104682;1274;74228;-23
2022/09/05 08:27:07;;;;;;;10.50;4.80;;;;;;;16.11;49.03;99793.30;104583;1273;61112;-23
2022/09/05 08:29:48;;;;;;;26.60;10.80;;;;;;;16.41;48.68;99789.77;104846;1274;61196;-23
2022/09/05 08:32:43;;;;;;;5.90;3.60;;;;;;;16.44;47.23;99789.29;105105;1274;74458;-22
2022/09/05 08:35:26;;;;;;;14.80;6.00;;;;;;;16.17;46.41;99784.80;104894;1271;77815;-24
2022/09/05 08:37:53;;;;;;;14.90;4.90;;;;;;;16.74;46.13;99783.91;104827;1274;74484;-22
2022/09/05 08:40:24;;;;;;;13.10;6.50;;;;;;;16.42;44.90;99782.66;104995;1274;61126;-22
2022/09/05 08:42:56;;;;;;;13.10;4.70;;;;;;;16.50;44.07;99780.73;104828;1274;61104;-22
2022/09/05 08:45:56;;;;;;;33.40;12.60;;;;;;;16.50;42.69;99778.21;104569;1274;74493;-22
2022/09/05 08:49:21;;;;;;;26.40;10.80;;;;;;;16.52;42.71;99776.17;104837;1274;76115;-23
2022/09/05 08:52:29;;;;;;;6.30;3.10;;;;;;;16.72;44.35;99779.35;104649;1273;74440;-24
2022/09/05 08:54:59;;;;;;;9.70;2.60;;;;;;;17.09;44.81;99779.52;104683;1274;62046;-24
2022/09/05 08:57:59;;;;;;;50.00;11.30;;;;;;;17.49;45.40;99778.78;104669;1271;61965;-24
2022/09/05 09:00:29;;;;;;;8.10;4.60;;;;;;;17.34;44.76;99780.98;104722;1274;74530;-24
2022/09/05 09:03:13;;;;;;;3.70;2.40;;;;;;;17.83;45.27;99777.91;104746;1274;75168;-24
2022/09/05 09:05:53;;;;;;;11.70;4.50;;;;;;;18.20;44.36;99776.16;104642;1274;74214;-22
2022/09/05 09:08:51;;;;;;;4.10;2.40;;;;;;;18.49;43.01;99775.30;104664;1271;61762;-22
2022/09/05 09:11:34;;;;;;;6.50;2.30;;;;;;;18.19;43.05;99772.90;104922;1274;61086;-23
2022/09/05 09:14:23;;;;;;;4.50;2.10;;;;;;;18.26;42.40;99769.52;104760;1274;75719;-23
2022/09/05 09:17:25;;;;;;;3.10;1.80;;;;;;;18.73;41.04;99762.74;104733;1274;75891;-22
2022/09/05 09:20:17;;;;;;;3.80;1.70;;;;;;;18.69;39.90;99765.11;104732;1274;74374;-24
2022/09/05 09:22:46;;;;;;;5.30;1.30;;;;;;;18.86;39.40;99762.73;104601;1274;61302;-25
2022/09/05 09:25:22;;;;;;;2.30;1.00;;;;;;;19.16;38.46;99760.95;104741;1274;62020;-22
2022/09/05 09:28:09;;;;;;;1.30;1.20;;;;;;;19.44;37.89;99763.30;104649;1274;75548;-23
2022/09/05 09:31:11;;;;;;;14.10;5.60;;;;;;;19.54;37.43;99758.30;104682;1274;74176;-24
2022/09/05 09:33:54;;;;;;;18.10;7.10;;;;;;;19.19;38.52;99756.92;104728;1274;73167;-23
2022/09/05 09:36:41;;;;;;;11.20;4.60;;;;;;;19.10;37.59;99751.19;104998;1274;61131;-26
2022/09/05 09:39:15;;;;;;;4.00;1.90;;;;;;;19.41;38.46;99753.74;104819;1274;61239;-25
2022/09/05 09:42:06;;;;;;;;;;;;;;;19.97;37.21;99751.27;104698;1274;75376;-25
2022/09/05 09:45:01;;;;;;;1.90;1.20;;;;;;;20.46;36.78;99755.24;104871;1274;75587;-24
2022/09/05 09:48:11;;;;;;;7.30;2.00;;;;;;;20.85;35.06;99752.62;104764;1274;74442;-24
2022/09/05 09:51:06;;;;;;;5.90;2.00;;;;;;;21.18;34.49;99751.54;104734;1274;61151;-25
2022/09/05 09:53:43;;;;;;;3.50;2.00;;;;;;;19.96;34.81;99741.52;104779;1274;62337;-24
2022/09/05 09:56:25;;;;;;;14.30;1.80;;;;;;;20.42;36.19;99743.09;104737;1274;75614;-22
2022/09/05 09:59:04;;;;;;;6.10;1.60;;;;;;;19.73;36.51;99739.17;104655;1274;75992;-23
2022/09/05 10:01:53;;;;;;;75.10;5.30;;;;;;;20.01;38.25;99742.36;104568;1274;74626;-23
2022/09/05 10:04:45;;;;;;;3.20;1.50;;;;;;;19.71;36.75;99732.96;104697;1274;61147;-25
2022/09/05 10:07:54;;;;;;;5.10;2.20;;;;;;;19.33;38.57;99737.07;104821;1272;62334;-23
2022/09/05 10:11:29;;;;;;;2.10;1.30;;;;;;;18.79;38.25;99731.29;104637;1271;75612;-23
2022/09/05 10:14:19;;;;;;;3.00;1.50;;;;;;;18.78;39.15;99730.31;104645;1274;76000;-23
2022/09/05 10:17:29;;;;;;;2.00;1.20;;;;;;;18.88;39.26;99730.46;104824;1272;74384;-23
2022/09/05 10:20:21;;;;;;;2.80;1.60;;;;;;;19.26;39.23;99734.62;104803;1272;62876;-23
2022/09/05 10:23:01;;;;;;;55.00;4.80;;;;;;;19.19;38.25;99734.75;104689;1272;61125;-24
2022/09/05 10:25:31;;;;;;;;;;;;;;;19.15;37.39;99735.11;104727;1274;75438;-24
2022/09/05 10:28:06;;;;;;;1.20;0.90;;;;;;;18.97;37.49;99732.53;104852;1271;76599;-24
2022/09/05 10:30:33;;;;;;;3.60;1.00;;;;;;;18.90;37.60;99730.61;104627;1273;74382;-24
2022/09/05 10:33:58;;;;;;;4.10;1.20;;;;;;;18.99;38.22;99732.02;104732;1271;61873;-24
2022/09/05 10:36:49;;;;;;;3.90;1.40;;;;;;;18.75;38.19;99728.51;104711;1271;62023;-24
2022/09/05 10:39:22;;;;;;;2.10;1.00;;;;;;;18.69;38.25;99732.41;104635;1274;75635;-24
2022/09/05 10:41:59;;;;;;;1.70;0.80;;;;;;;19.21;38.70;99728.89;104630;1274;76025;-24
2022/09/05 10:44:39;;;;;;;2.80;1.30;;;;;;;19.60;37.02;99726.83;104677;1274;74447;-23
2022/09/05 10:47:29;;;;;;;1.30;1.00;;;;;;;19.23;36.85;99725.77;104611;1274;62071;-24
2022/09/05 10:50:26;;;;;;;2.90;1.10;;;;;;;18.53;37.65;99727.58;104961;1274;61813;-25
2022/09/05 10:53:26;;;;;;;5.60;1.10;;;;;;;18.31;38.56;99727.95;104810;1273;75334;-25
2022/09/05 10:56:05;;;;;;;3.00;1.20;;;;;;;18.16;39.00;99733.80;105008;1274;75997;-24
2022/09/05 10:58:32;;;;;;;19.80;7.90;;;;;;;18.13;39.39;99733.08;104851;1271;74430;-24
2022/09/05 11:01:28;;;;;;;10.10;4.30;;;;;;;18.16;38.94;99728.21;104870;1271;61158;-24
2022/09/05 11:04:44;;;;;;;2.10;1.00;;;;;;;19.07;38.74;99722.29;104676;1271;61870;-24
2022/09/05 11:07:18;;;;;;;1.80;1.00;;;;;;;19.92;35.68;99708.00;104786;1271;74076;-24
2022/09/05 11:10:06;;;;;;;4.10;1.10;;;;;;;19.77;35.81;99712.02;104660;1272;76066;-24
2022/09/05 11:12:58;;;;;;;1.40;0.90;;;;;;;19.75;35.08;99703.92;104590;1274;74495;-24
2022/09/05 11:15:28;;;;;;;2.40;1.00;;;;;;;19.71;34.41;99698.98;104686;1271;62075;-23
2022/09/05 11:18:09;;;;;;;1.70;1.00;;;;;;;19.69;35.34;99711.70;104703;1274;61243;-24
2022/09/05 11:20:47;;;;;;;1.50;0.90;;;;;;;18.67;35.64;99700.67;104599;1271;75399;-23
2022/09/05 11:23:23;;;;;;;1.10;0.70;;;;;;;17.99;37.30;99713.45;104765;1271;75876;-23
2022/09/05 11:26:03;;;;;;;1.10;0.80;;;;;;;18.12;38.28;99714.98;104842;1274;73190;-23
2022/09/05 11:28:39;;;;;;;0.90;0.70;;;;;;;18.91;37.70;99707.99;104415;1274;61104;-23
2022/09/05 11:31:38;;;;;;;2.80;1.00;;;;;;;19.34;36.14;99708.77;104723;1271;61169;-23
2022/09/05 11:34:41;;;;;;;3.90;1.20;;;;;;;19.84;36.54;99703.68;104641;1274;74982;-23
2022/09/05 11:37:46;;;;;;;1.80;1.10;;;;;;;20.29;34.93;99699.83;104607;1274;76080;-23
2022/09/05 11:40:52;;;;;;;4.70;1.80;;;;;;;19.89;34.57;99704.73;104640;1272;74233;-23
2022/09/05 11:43:54;;;;;;;1.70;1.00;;;;;;;19.36;34.14;99705.17;104997;1271;61015;-23
2022/09/05 11:46:56;;;;;;;2.80;0.90;;;;;;;19.18;35.31;99709.00;104632;1274;61211;-25
2022/09/05 11:50:02;;;;;;;1.10;0.70;;;;;;;18.40;36.60;99707.87;104678;1272;74592;-23
2022/09/05 11:53:00;;;;;;;2.20;0.70;;;;;;;18.11;36.97;99709.21;104649;1272;76206;-23
2022/09/05 11:56:02;;;;;;;1.10;0.90;;;;;;;18.02;37.18;99705.65;104850;1271;74329;-24
2022/09/05 11:58:35;;;;;;;1.80;1.00;;;;;;;17.93;38.24;99708.45;104747;1272;61499;-23
2022/09/05 12:01:26;;;;;;;1.50;0.70;;;;;;;18.09;37.57;99698.02;104643;1272;61906;-23
2022/09/05 12:04:29;;;;;;;1.60;1.00;;;;;;;18.37;38.63;99697.23;104685;1274;75875;-24
2022/09/05 12:07:32;;;;;;;0.70;0.70;;;;;;;18.46;35.94;99692.96;104633;1274;75926;-24
2022/09/05 12:10:11;;;;;;;11.80;2.00;;;;;;;18.86;35.74;99691.25;104954;1274;74461;-24
2022/09/05 12:13:24;;;;;;;3.40;1.70;;;;;;;19.06;34.47;99686.05;105047;1274;61733;-23
2022/09/05 12:15:57;;;;;;;10.60;3.80;;;;;;;19.10;34.78;99688.52;104810;1274;61053;-23
2022/09/05 12:19:08;;;;;;;7.50;2.00;;;;;;;19.00;34.58;99692.98;104586;1272;75692;-26
2022/09/05 12:22:03;;;;;;;2.30;1.20;;;;;;;19.05;34.23;99688.02;104971;1274;76280;-23
2022/09/05 12:25:07;;;;;;;1.30;1.00;;;;;;;19.24;34.27;99688.48;104878;1274;72598;-23
2022/09/05 12:27:57;;;;;;;2.80;0.80;;;;;;;19.41;33.51;99689.16;105115;1274;61036;-23
2022/09/05 12:30:45;;;;;;;1.30;0.80;;;;;;;19.50;33.13;99688.19;104599;1274;61591;-23
2022/09/05 12:33:33;;;;;;;10.60;2.10;;;;;;;19.35;32.57;99679.99;104702;1274;75433;-23
2022/09/05 12:36:34;;;;;;;3.90;2.70;;;;;;;19.29;33.23;99682.67;104904;1274;75826;-24
2022/09/05 12:39:32;;;;;;;0.90;0.70;;;;;;;19.19;32.39;99675.83;104584;1273;74476;-23
2022/09/05 12:42:22;;;;;;;2.00;0.80;;;;;;;18.89;31.85;99677.22;104619;1274;61176;-23
2022/09/05 12:45:17;;;;;;;2.60;1.00;;;;;;;18.95;32.27;99673.61;104679;1274;61123;-24
2022/09/05 12:47:58;;;;;;;1.60;1.10;;;;;;;19.09;31.35;99673.61;104668;1274;75484;-22
2022/09/05 12:50:32;;;;;;;3.30;0.90;;;;;;;19.39;32.58;99677.70;104595;1274;76400;-23
2022/09/05 12:53:04;;;;;;;1.50;0.90;;;;;;;19.10;32.09;99675.95;104623;1274;73446;-23
2022/09/05 12:55:37;;;;;;;2.60;1.40;;;;;;;18.79;32.96;99677.03;104644;1272;61608;-23
2022/09/05 12:58:17;;;;;;;7.60;3.40;;;;;;;18.37;33.07;99673.16;104678;1274;61139;-23
2022/09/05 13:01:16;;;;;;;2.90;1.30;;;;;;;18.27;33.54;99666.52;104382;1274;75529;-23
2022/09/05 13:04:16;;;;;;;5.60;0.80;;;;;;;18.47;33.34;99663.36;104702;1274;76023;-23